sensor_id;sensor_type;location;lat;lon;timestamp;temperature;humidity
71039;SHT30;58692;43.212;27.908;2022-12-20T00:01:11;1.12;76.11
71039;SHT30;58692;43.212;27.908;2022-12-20T00:03:37;1.07;76.33
71039;SHT30;58692;43.212;27.908;2022-12-20T00:06:03;1.14;76.33
71039;SHT30;58692;43.212;27.908;2022-12-20T00:08:29;1.17;76.06
71039;SHT30;58692;43.212;27.908;2022-12-20T00:10:55;1.25;76.11
71039;SHT30;58692;43.212;27.908;2022-12-20T00:13:21;1.09;76.65
71039;SHT30;58692;43.212;27.908;2022-12-20T00:15:46;1.05;77.01
71039;SHT30;58692;43.212;27.908;2022-12-20T00:18:12;1.17;76.71
71039;SHT30;58692;43.212;27.908;2022-12-20T00:20:37;1.14;76.80
71039;SHT30;58692;43.212;27.908;2022-12-20T00:23:03;1.08;76.54
71039;SHT30;58692;43.212;27.908;2022-12-20T00:25:28;1.17;76.94
71039;SHT30;58692;43.212;27.908;2022-12-20T00:27:54;1.21;77.17
71039;SHT30;58692;43.212;27.908;2022-12-20T00:30:19;1.30;76.75
71039;SHT30;58692;43.212;27.908;2022-12-20T00:32:45;1.35;76.53
71039;SHT30;58692;43.212;27.908;2022-12-20T00:35:11;1.38;76.37
71039;SHT30;58692;43.212;27.908;2022-12-20T00:37:37;1.38;76.30
71039;SHT30;58692;43.212;27.908;2022-12-20T00:40:04;1.39;76.12
71039;SHT30;58692;43.212;27.908;2022-12-20T00:42:30;1.32;76.10
71039;SHT30;58692;43.212;27.908;2022-12-20T00:44:56;1.27;76.80
71039;SHT30;58692;43.212;27.908;2022-12-20T00:47:21;1.41;76.26
71039;SHT30;58692;43.212;27.908;2022-12-20T00:49:47;1.39;76.40
71039;SHT30;58692;43.212;27.908;2022-12-20T00:52:12;1.39;76.15
71039;SHT30;58692;43.212;27.908;2022-12-20T00:54:38;1.46;76.29
71039;SHT30;58692;43.212;27.908;2022-12-20T00:57:03;1.34;76.49
71039;SHT30;58692;43.212;27.908;2022-12-20T00:59:29;1.38;76.79
71039;SHT30;58692;43.212;27.908;2022-12-20T01:01:54;1.25;77.07
71039;SHT30;58692;43.212;27.908;2022-12-20T01:04:20;1.31;77.16
71039;SHT30;58692;43.212;27.908;2022-12-20T01:06:45;1.38;77.09
71039;SHT30;58692;43.212;27.908;2022-12-20T01:09:11;1.43;76.81
71039;SHT30;58692;43.212;27.908;2022-12-20T01:11:37;1.41;77.06
71039;SHT30;58692;43.212;27.908;2022-12-20T01:14:11;1.38;76.97
71039;SHT30;58692;43.212;27.908;2022-12-20T01:16:39;1.53;76.66
71039;SHT30;58692;43.212;27.908;2022-12-20T01:19:05;1.62;76.46
71039;SHT30;58692;43.212;27.908;2022-12-20T01:21:32;1.59;76.63
71039;SHT30;58692;43.212;27.908;2022-12-20T01:23:57;1.39;77.14
71039;SHT30;58692;43.212;27.908;2022-12-20T01:26:25;1.45;77.46
71039;SHT30;58692;43.212;27.908;2022-12-20T01:28:52;1.42;77.20
71039;SHT30;58692;43.212;27.908;2022-12-20T01:31:19;1.41;77.41
71039;SHT30;58692;43.212;27.908;2022-12-20T01:33:46;1.25;78.12
71039;SHT30;58692;43.212;27.908;2022-12-20T01:36:16;1.41;78.26
71039;SHT30;58692;43.212;27.908;2022-12-20T01:38:43;1.41;77.77
71039;SHT30;58692;43.212;27.908;2022-12-20T01:41:14;1.43;77.71
71039;SHT30;58692;43.212;27.908;2022-12-20T01:43:57;1.45;77.39
71039;SHT30;58692;43.212;27.908;2022-12-20T01:46:26;1.53;77.10
71039;SHT30;58692;43.212;27.908;2022-12-20T01:51:40;1.72;76.80
71039;SHT30;58692;43.212;27.908;2022-12-20T01:54:11;1.69;76.46
71039;SHT30;58692;43.212;27.908;2022-12-20T01:56:38;1.58;76.94
71039;SHT30;58692;43.212;27.908;2022-12-20T01:59:07;1.67;76.46
71039;SHT30;58692;43.212;27.908;2022-12-20T02:01:32;1.49;76.62
71039;SHT30;58692;43.212;27.908;2022-12-20T02:03:58;1.38;77.10
71039;SHT30;58692;43.212;27.908;2022-12-20T02:06:25;1.45;77.07
71039;SHT30;58692;43.212;27.908;2022-12-20T02:08:55;1.52;76.82
71039;SHT30;58692;43.212;27.908;2022-12-20T02:11:27;1.46;76.68
71039;SHT30;58692;43.212;27.908;2022-12-20T02:14:13;1.45;77.28
71039;SHT30;58692;43.212;27.908;2022-12-20T02:16:54;1.48;77.35
71039;SHT30;58692;43.212;27.908;2022-12-20T02:19:44;1.43;77.85
71039;SHT30;58692;43.212;27.908;2022-12-20T02:22:28;1.52;77.40
71039;SHT30;58692;43.212;27.908;2022-12-20T02:25:03;1.51;77.58
71039;SHT30;58692;43.212;27.908;2022-12-20T02:27:45;1.58;77.39
71039;SHT30;58692;43.212;27.908;2022-12-20T02:30:16;1.56;77.41
71039;SHT30;58692;43.212;27.908;2022-12-20T02:32:47;1.52;77.59
71039;SHT30;58692;43.212;27.908;2022-12-20T02:35:19;1.58;77.39
71039;SHT30;58692;43.212;27.908;2022-12-20T02:37:49;1.70;77.24
71039;SHT30;58692;43.212;27.908;2022-12-20T02:40:18;1.62;76.97
71039;SHT30;58692;43.212;27.908;2022-12-20T02:42:45;1.63;77.12
71039;SHT30;58692;43.212;27.908;2022-12-20T02:45:11;1.59;76.99
71039;SHT30;58692;43.212;27.908;2022-12-20T02:47:57;1.60;76.97
71039;SHT30;58692;43.212;27.908;2022-12-20T02:50:29;1.48;77.30
71039;SHT30;58692;43.212;27.908;2022-12-20T02:52:55;1.52;77.23
71039;SHT30;58692;43.212;27.908;2022-12-20T02:55:30;1.51;76.97
71039;SHT30;58692;43.212;27.908;2022-12-20T03:00:42;1.39;77.57
71039;SHT30;58692;43.212;27.908;2022-12-20T03:03:11;1.36;77.96
71039;SHT30;58692;43.212;27.908;2022-12-20T03:05:54;1.49;77.65
71039;SHT30;58692;43.212;27.908;2022-12-20T03:08:22;1.48;77.93
71039;SHT30;58692;43.212;27.908;2022-12-20T03:10:49;1.53;77.74
71039;SHT30;58692;43.212;27.908;2022-12-20T03:13:15;1.60;77.75
71039;SHT30;58692;43.212;27.908;2022-12-20T03:15:41;1.66;77.44
71039;SHT30;58692;43.212;27.908;2022-12-20T03:18:07;1.67;78.12
71039;SHT30;58692;43.212;27.908;2022-12-20T03:20:33;1.65;77.99
71039;SHT30;58692;43.212;27.908;2022-12-20T03:22:58;1.66;77.47
71039;SHT30;58692;43.212;27.908;2022-12-20T03:25:24;1.75;77.32
71039;SHT30;58692;43.212;27.908;2022-12-20T03:27:50;1.65;77.26
71039;SHT30;58692;43.212;27.908;2022-12-20T03:30:16;1.65;77.36
71039;SHT30;58692;43.212;27.908;2022-12-20T03:32:41;1.69;77.18
71039;SHT30;58692;43.212;27.908;2022-12-20T03:35:07;1.69;76.85
71039;SHT30;58692;43.212;27.908;2022-12-20T03:37:33;1.73;76.90
71039;SHT30;58692;43.212;27.908;2022-12-20T03:39:58;1.60;77.21
71039;SHT30;58692;43.212;27.908;2022-12-20T03:42:24;1.75;76.99
71039;SHT30;58692;43.212;27.908;2022-12-20T03:44:49;1.86;76.59
71039;SHT30;58692;43.212;27.908;2022-12-20T03:47:15;1.85;76.16
71039;SHT30;58692;43.212;27.908;2022-12-20T03:49:40;1.77;76.35
71039;SHT30;58692;43.212;27.908;2022-12-20T03:52:06;1.76;76.46
71039;SHT30;58692;43.212;27.908;2022-12-20T03:54:31;1.82;76.43
71039;SHT30;58692;43.212;27.908;2022-12-20T03:56:57;1.93;76.28
71039;SHT30;58692;43.212;27.908;2022-12-20T03:59:23;2.00;75.84
71039;SHT30;58692;43.212;27.908;2022-12-20T04:01:48;1.79;76.01
71039;SHT30;58692;43.212;27.908;2022-12-20T04:04:14;1.77;76.57
71039;SHT30;58692;43.212;27.908;2022-12-20T04:06:40;1.85;76.56
71039;SHT30;58692;43.212;27.908;2022-12-20T04:09:06;1.92;76.49
71039;SHT30;58692;43.212;27.908;2022-12-20T04:11:32;1.99;76.11
71039;SHT30;58692;43.212;27.908;2022-12-20T04:13:57;1.96;76.30
71039;SHT30;58692;43.212;27.908;2022-12-20T04:16:25;1.93;76.46
71039;SHT30;58692;43.212;27.908;2022-12-20T04:18:52;1.92;76.52
71039;SHT30;58692;43.212;27.908;2022-12-20T04:21:23;1.93;77.02
71039;SHT30;58692;43.212;27.908;2022-12-20T04:23:48;2.00;77.19
71039;SHT30;58692;43.212;27.908;2022-12-20T04:26:14;1.90;76.79
71039;SHT30;58692;43.212;27.908;2022-12-20T04:28:39;1.97;77.14
71039;SHT30;58692;43.212;27.908;2022-12-20T04:31:05;1.94;77.06
71039;SHT30;58692;43.212;27.908;2022-12-20T04:33:31;2.00;76.66
71039;SHT30;58692;43.212;27.908;2022-12-20T04:35:56;1.97;77.09
71039;SHT30;58692;43.212;27.908;2022-12-20T04:38:23;1.92;77.01
71039;SHT30;58692;43.212;27.908;2022-12-20T04:40:49;1.89;77.03
71039;SHT30;58692;43.212;27.908;2022-12-20T04:43:16;1.77;76.62
71039;SHT30;58692;43.212;27.908;2022-12-20T04:45:42;1.85;76.61
71039;SHT30;58692;43.212;27.908;2022-12-20T04:48:08;1.80;77.09
71039;SHT30;58692;43.212;27.908;2022-12-20T04:50:34;1.82;76.73
71039;SHT30;58692;43.212;27.908;2022-12-20T04:52:59;1.76;76.99
71039;SHT30;58692;43.212;27.908;2022-12-20T04:55:40;1.85;76.56
71039;SHT30;58692;43.212;27.908;2022-12-20T04:58:06;1.79;76.39
71039;SHT30;58692;43.212;27.908;2022-12-20T05:00:33;1.79;76.47
71039;SHT30;58692;43.212;27.908;2022-12-20T05:02:58;1.69;76.49
71039;SHT30;58692;43.212;27.908;2022-12-20T05:05:24;1.76;76.77
71039;SHT30;58692;43.212;27.908;2022-12-20T05:07:51;1.80;76.61
71039;SHT30;58692;43.212;27.908;2022-12-20T05:10:17;1.77;76.77
71039;SHT30;58692;43.212;27.908;2022-12-20T05:12:43;1.83;76.71
71039;SHT30;58692;43.212;27.908;2022-12-20T05:15:09;1.87;76.73
71039;SHT30;58692;43.212;27.908;2022-12-20T05:17:35;1.87;76.47
71039;SHT30;58692;43.212;27.908;2022-12-20T05:20:03;1.94;76.25
71039;SHT30;58692;43.212;27.908;2022-12-20T05:22:29;1.77;76.16
71039;SHT30;58692;43.212;27.908;2022-12-20T05:25:13;1.73;76.73
71039;SHT30;58692;43.212;27.908;2022-12-20T05:27:54;1.79;77.08
71039;SHT30;58692;43.212;27.908;2022-12-20T05:30:23;1.66;76.82
71039;SHT30;58692;43.212;27.908;2022-12-20T05:32:49;1.77;77.20
71039;SHT30;58692;43.212;27.908;2022-12-20T05:35:15;1.67;77.09
71039;SHT30;58692;43.212;27.908;2022-12-20T05:37:40;1.73;76.97
71039;SHT30;58692;43.212;27.908;2022-12-20T05:40:07;1.80;76.55
71039;SHT30;58692;43.212;27.908;2022-12-20T05:42:33;1.76;76.97
71039;SHT30;58692;43.212;27.908;2022-12-20T05:44:58;1.77;76.95
71039;SHT30;58692;43.212;27.908;2022-12-20T05:47:25;1.77;76.65
71039;SHT30;58692;43.212;27.908;2022-12-20T05:49:50;1.65;76.50
71039;SHT30;58692;43.212;27.908;2022-12-20T05:52:16;1.62;76.77
71039;SHT30;58692;43.212;27.908;2022-12-20T05:54:41;1.63;76.85
71039;SHT30;58692;43.212;27.908;2022-12-20T05:57:07;1.65;76.98
71039;SHT30;58692;43.212;27.908;2022-12-20T05:59:32;1.77;76.48
71039;SHT30;58692;43.212;27.908;2022-12-20T06:01:58;1.82;76.10
71039;SHT30;58692;43.212;27.908;2022-12-20T06:04:24;1.80;75.93
71039;SHT30;58692;43.212;27.908;2022-12-20T06:06:49;1.83;76.14
71039;SHT30;58692;43.212;27.908;2022-12-20T06:09:15;1.79;76.22
71039;SHT30;58692;43.212;27.908;2022-12-20T06:11:40;1.75;76.06
71039;SHT30;58692;43.212;27.908;2022-12-20T06:14:06;1.70;76.45
71039;SHT30;58692;43.212;27.908;2022-12-20T06:16:31;1.87;76.33
71039;SHT30;58692;43.212;27.908;2022-12-20T06:18:57;1.79;76.74
71039;SHT30;58692;43.212;27.908;2022-12-20T06:21:23;1.82;76.47
71039;SHT30;58692;43.212;27.908;2022-12-20T06:23:48;1.87;76.14
71039;SHT30;58692;43.212;27.908;2022-12-20T06:26:14;1.79;76.46
71039;SHT30;58692;43.212;27.908;2022-12-20T06:28:40;1.87;76.22
71039;SHT30;58692;43.212;27.908;2022-12-20T06:31:08;1.90;75.55
71039;SHT30;58692;43.212;27.908;2022-12-20T06:33:35;1.92;76.21
71039;SHT30;58692;43.212;27.908;2022-12-20T06:36:00;1.85;75.85
71039;SHT30;58692;43.212;27.908;2022-12-20T06:38:26;1.83;75.46
71039;SHT30;58692;43.212;27.908;2022-12-20T06:40:51;2.00;76.17
71039;SHT30;58692;43.212;27.908;2022-12-20T06:43:17;2.16;75.25
71039;SHT30;58692;43.212;27.908;2022-12-20T06:45:42;2.21;75.20
71039;SHT30;58692;43.212;27.908;2022-12-20T06:48:09;2.18;75.11
71039;SHT30;58692;43.212;27.908;2022-12-20T06:50:34;2.31;74.65
71039;SHT30;58692;43.212;27.908;2022-12-20T06:53:00;2.45;73.98
71039;SHT30;58692;43.212;27.908;2022-12-20T06:55:25;2.61;73.62
71039;SHT30;58692;43.212;27.908;2022-12-20T06:57:51;2.68;73.68
71039;SHT30;58692;43.212;27.908;2022-12-20T07:00:17;2.93;72.93
71039;SHT30;58692;43.212;27.908;2022-12-20T07:02:42;3.81;70.07
71039;SHT30;58692;43.212;27.908;2022-12-20T07:05:09;4.62;66.63
71039;SHT30;58692;43.212;27.908;2022-12-20T07:07:35;4.73;65.67
71039;SHT30;58692;43.212;27.908;2022-12-20T07:10:01;4.94;65.51
71039;SHT30;58692;43.212;27.908;2022-12-20T07:12:29;5.10;65.41
71039;SHT30;58692;43.212;27.908;2022-12-20T07:14:56;5.62;63.44
71039;SHT30;58692;43.212;27.908;2022-12-20T07:17:21;5.68;62.85
71039;SHT30;58692;43.212;27.908;2022-12-20T07:19:47;5.78;63.01
71039;SHT30;58692;43.212;27.908;2022-12-20T07:22:12;6.27;61.44
71039;SHT30;58692;43.212;27.908;2022-12-20T07:24:38;6.47;60.54
71039;SHT30;58692;43.212;27.908;2022-12-20T07:27:04;6.40;60.91
71039;SHT30;58692;43.212;27.908;2022-12-20T07:29:29;5.78;62.86
71039;SHT30;58692;43.212;27.908;2022-12-20T07:31:54;5.85;62.46
71039;SHT30;58692;43.212;27.908;2022-12-20T07:34:20;5.71;64.17
71039;SHT30;58692;43.212;27.908;2022-12-20T07:36:46;5.58;64.08
71039;SHT30;58692;43.212;27.908;2022-12-20T07:39:12;5.78;64.10
71039;SHT30;58692;43.212;27.908;2022-12-20T07:41:37;5.82;63.67
71039;SHT30;58692;43.212;27.908;2022-12-20T07:44:03;5.65;63.69
71039;SHT30;58692;43.212;27.908;2022-12-20T07:46:29;5.56;64.61
71039;SHT30;58692;43.212;27.908;2022-12-20T07:48:54;5.61;65.15
71039;SHT30;58692;43.212;27.908;2022-12-20T07:51:25;5.69;65.17
71039;SHT30;58692;43.212;27.908;2022-12-20T07:53:58;5.50;66.27
71039;SHT30;58692;43.212;27.908;2022-12-20T07:56:25;5.55;66.30
71039;SHT30;58692;43.212;27.908;2022-12-20T07:58:56;5.56;66.15
71039;SHT30;58692;43.212;27.908;2022-12-20T08:01:26;5.09;68.20
71039;SHT30;58692;43.212;27.908;2022-12-20T08:04:01;4.73;68.15
71039;SHT30;58692;43.212;27.908;2022-12-20T08:06:28;4.86;68.62
71039;SHT30;58692;43.212;27.908;2022-12-20T08:08:57;4.73;69.40
71039;SHT30;58692;43.212;27.908;2022-12-20T08:11:26;4.96;68.56
71039;SHT30;58692;43.212;27.908;2022-12-20T08:13:52;4.97;68.31
71039;SHT30;58692;43.212;27.908;2022-12-20T08:16:18;4.80;68.39
71039;SHT30;58692;43.212;27.908;2022-12-20T08:18:43;5.07;68.05
71039;SHT30;58692;43.212;27.908;2022-12-20T08:21:09;5.27;67.60
71039;SHT30;58692;43.212;27.908;2022-12-20T08:23:37;5.35;67.41
71039;SHT30;58692;43.212;27.908;2022-12-20T08:26:03;5.62;67.12
71039;SHT30;58692;43.212;27.908;2022-12-20T08:28:28;5.68;66.15
71039;SHT30;58692;43.212;27.908;2022-12-20T08:31:00;5.89;65.80
71039;SHT30;58692;43.212;27.908;2022-12-20T08:33:26;6.06;65.32
71039;SHT30;58692;43.212;27.908;2022-12-20T08:36:00;6.15;64.79
71039;SHT30;58692;43.212;27.908;2022-12-20T08:38:28;5.63;66.04
71039;SHT30;58692;43.212;27.908;2022-12-20T08:41:00;5.91;65.61
71039;SHT30;58692;43.212;27.908;2022-12-20T08:43:25;6.01;64.93
71039;SHT30;58692;43.212;27.908;2022-12-20T08:45:52;6.09;65.23
71039;SHT30;58692;43.212;27.908;2022-12-20T08:48:18;5.98;65.63
71039;SHT30;58692;43.212;27.908;2022-12-20T08:50:44;6.05;65.70
71039;SHT30;58692;43.212;27.908;2022-12-20T08:53:09;6.38;65.03
71039;SHT30;58692;43.212;27.908;2022-12-20T08:55:35;6.58;64.46
71039;SHT30;58692;43.212;27.908;2022-12-20T08:58:00;6.81;63.88
71039;SHT30;58692;43.212;27.908;2022-12-20T09:00:26;7.45;62.18
71039;SHT30;58692;43.212;27.908;2022-12-20T09:02:53;7.80;60.83
71039;SHT30;58692;43.212;27.908;2022-12-20T09:05:19;7.93;60.18
71039;SHT30;58692;43.212;27.908;2022-12-20T09:07:44;8.31;60.00
71039;SHT30;58692;43.212;27.908;2022-12-20T09:10:10;8.79;58.59
71039;SHT30;58692;43.212;27.908;2022-12-20T09:12:37;9.17;57.95
71039;SHT30;58692;43.212;27.908;2022-12-20T09:15:04;9.15;57.42
71039;SHT30;58692;43.212;27.908;2022-12-20T09:17:30;8.76;58.13
71039;SHT30;58692;43.212;27.908;2022-12-20T09:19:56;9.51;57.35
71039;SHT30;58692;43.212;27.908;2022-12-20T09:22:21;9.17;57.12
71039;SHT30;58692;43.212;27.908;2022-12-20T09:24:47;10.01;55.41
71039;SHT30;58692;43.212;27.908;2022-12-20T09:27:13;9.23;56.82
71039;SHT30;58692;43.212;27.908;2022-12-20T09:29:39;9.33;56.38
71039;SHT30;58692;43.212;27.908;2022-12-20T09:32:04;10.29;54.55
71039;SHT30;58692;43.212;27.908;2022-12-20T09:34:30;10.36;54.26
71039;SHT30;58692;43.212;27.908;2022-12-20T09:36:55;9.85;55.48
71039;SHT30;58692;43.212;27.908;2022-12-20T09:39:21;10.01;55.27
71039;SHT30;58692;43.212;27.908;2022-12-20T09:41:52;11.37;51.49
71039;SHT30;58692;43.212;27.908;2022-12-20T09:44:26;10.08;54.33
71039;SHT30;58692;43.212;27.908;2022-12-20T09:47:04;9.19;56.35
71039;SHT30;58692;43.212;27.908;2022-12-20T09:49:42;8.62;59.39
71039;SHT30;58692;43.212;27.908;2022-12-20T10:00:15;11.50;51.40
71039;SHT30;58692;43.212;27.908;2022-12-20T10:02:41;11.00;52.51
71039;SHT30;58692;43.212;27.908;2022-12-20T10:05:13;11.64;51.21
71039;SHT30;58692;43.212;27.908;2022-12-20T10:19:14;10.42;55.17
71039;SHT30;58692;43.212;27.908;2022-12-20T10:21:55;10.39;54.05
71039;SHT30;58692;43.212;27.908;2022-12-20T10:24:28;10.21;55.37
71039;SHT30;58692;43.212;27.908;2022-12-20T10:26:56;9.99;56.04
71039;SHT30;58692;43.212;27.908;2022-12-20T10:29:22;10.80;54.93
71039;SHT30;58692;43.212;27.908;2022-12-20T10:31:51;11.89;52.32
71039;SHT30;58692;43.212;27.908;2022-12-20T10:34:19;13.14;48.67
71039;SHT30;58692;43.212;27.908;2022-12-20T10:36:44;13.01;48.13
71039;SHT30;58692;43.212;27.908;2022-12-20T10:39:10;11.59;51.52
71039;SHT30;58692;43.212;27.908;2022-12-20T10:41:48;10.84;53.13
71039;SHT30;58692;43.212;27.908;2022-12-20T10:44:24;11.55;52.27
71039;SHT30;58692;43.212;27.908;2022-12-20T10:46:54;10.69;54.00
71039;SHT30;58692;43.212;27.908;2022-12-20T10:49:32;10.33;55.11
71039;SHT30;58692;43.212;27.908;2022-12-20T10:52:03;10.32;55.34
71039;SHT30;58692;43.212;27.908;2022-12-20T10:54:53;10.35;55.17
71039;SHT30;58692;43.212;27.908;2022-12-20T10:57:25;9.64;57.18
71039;SHT30;58692;43.212;27.908;2022-12-20T11:04:58;8.54;60.84
71039;SHT30;58692;43.212;27.908;2022-12-20T11:07:27;8.64;60.92
71039;SHT30;58692;43.212;27.908;2022-12-20T11:09:57;8.66;61.04
71039;SHT30;58692;43.212;27.908;2022-12-20T11:12:24;8.42;61.67
71039;SHT30;58692;43.212;27.908;2022-12-20T11:15:08;8.15;62.41
71039;SHT30;58692;43.212;27.908;2022-12-20T11:17:39;7.89;63.00
71039;SHT30;58692;43.212;27.908;2022-12-20T11:20:34;7.73;63.76
71039;SHT30;58692;43.212;27.908;2022-12-20T11:25:54;7.83;63.62
71039;SHT30;58692;43.212;27.908;2022-12-20T11:37:08;7.86;64.27
71039;SHT30;58692;43.212;27.908;2022-12-20T11:47:37;7.45;65.52
71039;SHT30;58692;43.212;27.908;2022-12-20T11:52:54;7.83;64.65
71039;SHT30;58692;43.212;27.908;2022-12-20T11:55:33;7.73;64.94
71039;SHT30;58692;43.212;27.908;2022-12-20T11:58:05;7.66;65.22
71039;SHT30;58692;43.212;27.908;2022-12-20T12:00:45;7.80;65.14
71039;SHT30;58692;43.212;27.908;2022-12-20T12:03:28;7.87;64.76
71039;SHT30;58692;43.212;27.908;2022-12-20T12:11:46;7.48;65.61
71039;SHT30;58692;43.212;27.908;2022-12-20T12:17:08;7.52;66.08
71039;SHT30;58692;43.212;27.908;2022-12-20T12:19:40;7.59;65.95
71039;SHT30;58692;43.212;27.908;2022-12-20T12:22:12;7.50;66.31
71039;SHT30;58692;43.212;27.908;2022-12-20T12:24:45;7.46;66.21
71039;SHT30;58692;43.212;27.908;2022-12-20T12:27:23;7.49;66.29
71039;SHT30;58692;43.212;27.908;2022-12-20T12:29:50;7.15;67.29
71039;SHT30;58692;43.212;27.908;2022-12-20T12:32:23;7.22;66.98
71039;SHT30;58692;43.212;27.908;2022-12-20T12:37:54;7.39;66.59
71039;SHT30;58692;43.212;27.908;2022-12-20T12:43:58;7.59;66.20
71039;SHT30;58692;43.212;27.908;2022-12-20T12:46:30;7.45;66.53
71039;SHT30;58692;43.212;27.908;2022-12-20T12:48:59;7.36;66.95
71039;SHT30;58692;43.212;27.908;2022-12-20T12:51:38;7.42;66.71
71039;SHT30;58692;43.212;27.908;2022-12-20T12:54:26;7.63;66.34
71039;SHT30;58692;43.212;27.908;2022-12-20T12:57:11;8.07;64.92
71039;SHT30;58692;43.212;27.908;2022-12-20T13:02:22;7.58;66.05
71039;SHT30;58692;43.212;27.908;2022-12-20T13:04:59;7.63;66.21
71039;SHT30;58692;43.212;27.908;2022-12-20T13:07:41;7.52;66.53
71039;SHT30;58692;43.212;27.908;2022-12-20T13:13:00;7.80;66.06
71039;SHT30;58692;43.212;27.908;2022-12-20T13:18:00;7.70;65.99
71039;SHT30;58692;43.212;27.908;2022-12-20T13:20:29;7.58;66.56
71039;SHT30;58692;43.212;27.908;2022-12-20T13:23:13;7.45;67.04
71039;SHT30;58692;43.212;27.908;2022-12-20T13:25:41;7.30;67.37
71039;SHT30;58692;43.212;27.908;2022-12-20T13:31:28;7.49;66.93
71039;SHT30;58692;43.212;27.908;2022-12-20T13:33:45;7.58;66.65
71039;SHT30;58692;43.212;27.908;2022-12-20T13:41:36;7.04;68.11
71039;SHT30;58692;43.212;27.908;2022-12-20T13:44:21;7.04;68.13
71039;SHT30;58692;43.212;27.908;2022-12-20T13:46:53;7.05;67.94
71039;SHT30;58692;43.212;27.908;2022-12-20T13:52:10;6.77;68.63
71039;SHT30;58692;43.212;27.908;2022-12-20T13:54:42;6.74;68.83
71039;SHT30;58692;43.212;27.908;2022-12-20T13:57:15;6.80;68.76
71039;SHT30;58692;43.212;27.908;2022-12-20T13:59:46;6.83;69.13
71039;SHT30;58692;43.212;27.908;2022-12-20T14:02:29;6.70;69.23
71039;SHT30;58692;43.212;27.908;2022-12-20T14:05:03;6.83;68.84
71039;SHT30;58692;43.212;27.908;2022-12-20T14:07:31;6.85;68.44
71039;SHT30;58692;43.212;27.908;2022-12-20T14:10:16;6.80;68.78
71039;SHT30;58692;43.212;27.908;2022-12-20T14:12:44;6.85;68.58
71039;SHT30;58692;43.212;27.908;2022-12-20T14:15:27;6.91;68.52
71039;SHT30;58692;43.212;27.908;2022-12-20T14:17:53;6.83;68.76
71039;SHT30;58692;43.212;27.908;2022-12-20T14:20:23;6.88;68.65
71039;SHT30;58692;43.212;27.908;2022-12-20T14:25:25;6.66;69.37
71039;SHT30;58692;43.212;27.908;2022-12-20T14:27:52;6.61;69.59
71039;SHT30;58692;43.212;27.908;2022-12-20T14:30:34;6.51;69.97
71039;SHT30;58692;43.212;27.908;2022-12-20T14:33:17;6.50;70.07
71039;SHT30;58692;43.212;27.908;2022-12-20T14:35:47;6.54;70.05
71039;SHT30;58692;43.212;27.908;2022-12-20T14:38:21;6.34;70.58
71039;SHT30;58692;43.212;27.908;2022-12-20T14:40:47;6.23;70.76
71039;SHT30;58692;43.212;27.908;2022-12-20T14:43:14;6.09;71.38
71039;SHT30;58692;43.212;27.908;2022-12-20T14:45:42;6.06;71.45
71039;SHT30;58692;43.212;27.908;2022-12-20T14:48:15;5.99;71.63
71039;SHT30;58692;43.212;27.908;2022-12-20T14:50:51;5.91;71.99
71039;SHT30;58692;43.212;27.908;2022-12-20T14:53:20;5.92;71.95
71039;SHT30;58692;43.212;27.908;2022-12-20T14:55:48;5.92;71.96
71039;SHT30;58692;43.212;27.908;2022-12-20T14:58:26;5.83;72.28
71039;SHT30;58692;43.212;27.908;2022-12-20T15:01:14;5.89;72.19
71039;SHT30;58692;43.212;27.908;2022-12-20T15:03:54;5.81;72.39
71039;SHT30;58692;43.212;27.908;2022-12-20T15:08:56;5.76;72.68
71039;SHT30;58692;43.212;27.908;2022-12-20T15:11:22;5.82;72.39
71039;SHT30;58692;43.212;27.908;2022-12-20T15:13:54;5.76;72.44
71039;SHT30;58692;43.212;27.908;2022-12-20T15:16:23;5.71;72.38
71039;SHT30;58692;43.212;27.908;2022-12-20T15:18:52;5.56;72.98
71039;SHT30;58692;43.212;27.908;2022-12-20T15:21:35;5.58;72.94
71039;SHT30;58692;43.212;27.908;2022-12-20T15:24:07;5.59;72.88
71039;SHT30;58692;43.212;27.908;2022-12-20T15:26:34;5.63;72.83
71039;SHT30;58692;43.212;27.908;2022-12-20T15:29:00;5.58;72.96
71039;SHT30;58692;43.212;27.908;2022-12-20T15:31:27;5.50;73.43
71039;SHT30;58692;43.212;27.908;2022-12-20T15:33:54;5.51;73.41
71039;SHT30;58692;43.212;27.908;2022-12-20T15:36:25;5.56;73.06
71039;SHT30;58692;43.212;27.908;2022-12-20T15:38:52;5.62;72.81
71039;SHT30;58692;43.212;27.908;2022-12-20T15:41:28;5.65;72.71
71039;SHT30;58692;43.212;27.908;2022-12-20T15:44:02;5.69;72.55
71039;SHT30;58692;43.212;27.908;2022-12-20T15:46:29;5.59;72.58
71039;SHT30;58692;43.212;27.908;2022-12-20T15:48:56;5.58;72.64
71039;SHT30;58692;43.212;27.908;2022-12-20T15:51:37;5.45;73.13
71039;SHT30;58692;43.212;27.908;2022-12-20T15:54:09;5.47;73.05
71039;SHT30;58692;43.212;27.908;2022-12-20T15:56:38;5.37;73.26
71039;SHT30;58692;43.212;27.908;2022-12-20T15:59:03;5.32;73.42
71039;SHT30;58692;43.212;27.908;2022-12-20T16:01:35;5.47;73.10
71039;SHT30;58692;43.212;27.908;2022-12-20T16:04:01;5.52;72.79
71039;SHT30;58692;43.212;27.908;2022-12-20T16:06:27;5.48;72.71
71039;SHT30;58692;43.212;27.908;2022-12-20T16:08:53;5.51;72.74
71039;SHT30;58692;43.212;27.908;2022-12-20T16:11:22;5.50;72.76
71039;SHT30;58692;43.212;27.908;2022-12-20T16:13:48;5.50;72.80
71039;SHT30;58692;43.212;27.908;2022-12-20T16:16:22;5.44;72.91
71039;SHT30;58692;43.212;27.908;2022-12-20T16:18:48;5.48;73.01
71039;SHT30;58692;43.212;27.908;2022-12-20T16:21:19;5.48;72.99
71039;SHT30;58692;43.212;27.908;2022-12-20T16:23:45;5.47;72.91
71039;SHT30;58692;43.212;27.908;2022-12-20T16:26:13;5.48;72.92
71039;SHT30;58692;43.212;27.908;2022-12-20T16:28:41;5.45;72.97
71039;SHT30;58692;43.212;27.908;2022-12-20T16:31:16;5.32;73.35
71039;SHT30;58692;43.212;27.908;2022-12-20T16:33:46;5.28;73.46
71039;SHT30;58692;43.212;27.908;2022-12-20T16:36:12;5.26;73.50
71039;SHT30;58692;43.212;27.908;2022-12-20T16:38:39;5.30;73.51
71039;SHT30;58692;43.212;27.908;2022-12-20T16:41:14;5.31;73.35
71039;SHT30;58692;43.212;27.908;2022-12-20T16:43:41;5.24;73.39
71039;SHT30;58692;43.212;27.908;2022-12-20T16:46:18;5.28;73.56
71039;SHT30;58692;43.212;27.908;2022-12-20T16:48:44;5.26;73.58
71039;SHT30;58692;43.212;27.908;2022-12-20T16:53:50;5.23;73.72
71039;SHT30;58692;43.212;27.908;2022-12-20T16:56:16;5.23;73.87
71039;SHT30;58692;43.212;27.908;2022-12-20T16:58:41;5.23;74.04
71039;SHT30;58692;43.212;27.908;2022-12-20T17:01:13;5.20;74.02
71039;SHT30;58692;43.212;27.908;2022-12-20T17:03:40;5.11;74.19
71039;SHT30;58692;43.212;27.908;2022-12-20T17:06:09;5.11;74.33
71039;SHT30;58692;43.212;27.908;2022-12-20T17:08:34;5.04;74.62
71039;SHT30;58692;43.212;27.908;2022-12-20T17:11:00;5.03;74.69
71039;SHT30;58692;43.212;27.908;2022-12-20T17:13:25;5.00;74.87
71039;SHT30;58692;43.212;27.908;2022-12-20T17:15:51;4.93;75.19